Time;durP1;ratioP1;P1;durP2;ratioP2;P2;SDS_P1;SDS_P2;PMS_P1;PMS_P2;Temp;Humidity;BMP_temperature;BMP_pressure;BME280_temperature;BME280_humidity;BME280_pressure;Samples;Min_cycle;Max_cycle;Signal;HPM_P1;HPM_P2
2021/10/12 00:01:46;;;;;;;8.93;5.18;;;;;;;;;;6193089;23;20021;-79
2021/10/12 00:04:50;;;;;;;7.70;4.93;;;;;;;;;;6193110;23;20009;-79
2021/10/12 00:07:55;;;;;;;12.95;5.13;;;;;;;;;;6193034;23;20013;-79
2021/10/12 00:11:01;;;;;;;9.93;5.03;;;;;;;;;;6192042;23;20028;-79
2021/10/12 00:14:05;;;;;;;8.20;5.07;;;;;;;;;;6193209;23;20013;-79
2021/10/12 00:17:10;;;;;;;6.38;4.50;;;;;;;;;;6186857;23;20013;-79
2021/10/12 00:20:14;;;;;;;10.57;5.65;;;;;;;;;;6192613;23;20013;-79
2021/10/12 00:23:18;;;;;;;9.13;5.90;;;;;;;;;;6193000;23;20044;-79
2021/10/12 00:26:23;;;;;;;7.80;4.75;;;;;;;;;;6193031;23;20005;-79
2021/10/12 00:29:27;;;;;;;7.82;4.45;;;;;;;;;;6194887;23;20318;-79
2021/10/12 00:32:33;;;;;;;6.18;4.85;;;;;;;;;;6194941;23;20017;-79
2021/10/12 00:35:37;;;;;;;10.60;5.32;;;;;;;;;;6194867;23;20009;-79
2021/10/12 00:38:42;;;;;;;9.15;5.03;;;;;;;;;;6194776;23;20039;-79
2021/10/12 00:41:46;;;;;;;6.50;4.25;;;;;;;;;;6194746;23;20021;-79
2021/10/12 00:44:51;;;;;;;12.57;4.82;;;;;;;;;;6194903;23;20319;-79
2021/10/12 00:47:57;;;;;;;7.68;4.63;;;;;;;;;;6194797;23;20081;-79
2021/10/12 00:51:02;;;;;;;7.30;4.32;;;;;;;;;;6194733;23;20441;-79
2021/10/12 00:54:06;;;;;;;7.93;4.10;;;;;;;;;;6194750;23;20017;-79
2021/10/12 00:57:11;;;;;;;7.25;4.35;;;;;;;;;;6194686;23;20013;-79
2021/10/12 01:00:15;;;;;;;7.20;4.50;;;;;;;;;;6194689;23;20013;-80
2021/10/12 01:03:20;;;;;;;7.82;4.00;;;;;;;;;;6194708;23;20039;-79
2021/10/12 01:06:24;;;;;;;8.00;3.47;;;;;;;;;;6193642;23;20449;-79
2021/10/12 01:09:30;;;;;;;9.00;4.13;;;;;;;;;;6194519;23;20021;-79
2021/10/12 01:12:36;;;;;;;7.97;4.10;;;;;;;;;;6194611;23;20017;-79
2021/10/12 01:15:40;;;;;;;11.00;4.15;;;;;;;;;;6194254;23;20005;-79
2021/10/12 01:19:01;;;;;;;11.05;4.07;;;;;;;;;;6194454;23;20016;-79
2021/10/12 01:22:05;;;;;;;10.70;3.95;;;;;;;;;;6186458;23;20024;-79
2021/10/12 01:25:10;;;;;;;5.35;4.10;;;;;;;;;;6194443;23;20020;-79
2021/10/12 01:28:14;;;;;;;7.15;4.05;;;;;;;;;;6194196;23;20009;-79
2021/10/12 01:31:26;;;;;;;10.32;4.35;;;;;;;;;;6194281;23;20021;-79
2021/10/12 01:34:30;;;;;;;8.93;4.00;;;;;;;;;;6194361;23;20172;-79
2021/10/12 01:37:35;;;;;;;7.55;4.50;;;;;;;;;;6194040;23;20013;-79
2021/10/12 01:40:39;;;;;;;10.38;4.07;;;;;;;;;;6194338;23;20005;-79
2021/10/12 01:43:43;;;;;;;7.85;4.40;;;;;;;;;;6194310;23;20020;-79
2021/10/12 01:46:48;;;;;;;7.72;3.65;;;;;;;;;;6194332;23;20013;-79
2021/10/12 01:49:52;;;;;;;12.18;4.45;;;;;;;;;;6194093;23;20021;-78
2021/10/12 01:52:56;;;;;;;12.35;4.18;;;;;;;;;;6194152;23;20472;-80
2021/10/12 01:56:02;;;;;;;8.25;4.32;;;;;;;;;;6194069;23;20036;-78
2021/10/12 01:59:07;;;;;;;7.40;3.85;;;;;;;;;;6194046;23;20013;-78
2021/10/12 02:02:11;;;;;;;7.47;4.18;;;;;;;;;;6194158;23;20013;-78
2021/10/12 02:05:15;;;;;;;7.32;3.88;;;;;;;;;;6194786;23;20012;-78
2021/10/12 02:08:20;;;;;;;12.00;4.53;;;;;;;;;;6193991;23;20013;-78
2021/10/12 02:11:24;;;;;;;9.07;4.43;;;;;;;;;;6193861;23;20024;-78
2021/10/12 02:14:28;;;;;;;9.73;4.72;;;;;;;;;;6193898;23;20009;-78
2021/10/12 02:17:33;;;;;;;7.03;4.47;;;;;;;;;;6184391;23;20009;-78
2021/10/12 02:20:37;;;;;;;6.43;4.00;;;;;;;;;;6191578;23;20013;-78
2021/10/12 02:23:42;;;;;;;9.70;4.68;;;;;;;;;;6193743;23;20025;-78
2021/10/12 02:26:46;;;;;;;4.93;3.60;;;;;;;;;;6193732;23;20009;-79
2021/10/12 02:29:50;;;;;;;8.65;4.72;;;;;;;;;;6193465;23;20021;-78
2021/10/12 02:32:54;;;;;;;8.00;4.93;;;;;;;;;;6193688;23;20017;-78
2021/10/12 02:35:59;;;;;;;9.13;4.45;;;;;;;;;;6193725;23;20013;-78
2021/10/12 02:39:04;;;;;;;7.43;4.55;;;;;;;;;;6193610;23;20314;-78
2021/10/12 02:42:08;;;;;;;5.53;3.92;;;;;;;;;;6193626;23;20432;-78
2021/10/12 02:45:13;;;;;;;5.93;3.78;;;;;;;;;;6193685;23;20017;-78
2021/10/12 02:48:17;;;;;;;8.60;3.70;;;;;;;;;;6193495;23;20031;-78
2021/10/12 02:51:21;;;;;;;5.75;4.03;;;;;;;;;;6193324;23;20441;-78
2021/10/12 02:54:26;;;;;;;8.30;3.90;;;;;;;;;;6193621;23;20009;-79
2021/10/12 02:57:32;;;;;;;6.95;4.15;;;;;;;;;;6193471;23;20017;-78
2021/10/12 03:00:36;;;;;;;10.43;4.60;;;;;;;;;;6193341;23;20043;-78
2021/10/12 03:03:40;;;;;;;6.15;4.10;;;;;;;;;;6193370;23;20023;-78
2021/10/12 03:06:45;;;;;;;9.52;4.30;;;;;;;;;;6192397;23;20009;-78
2021/10/12 03:09:49;;;;;;;8.48;4.55;;;;;;;;;;6193400;23;20323;-78
2021/10/12 03:12:56;;;;;;;8.10;4.32;;;;;;;;;;6193418;23;20334;-78
2021/10/12 03:16:01;;;;;;;9.45;4.78;;;;;;;;;;6191012;23;20013;-78
2021/10/12 03:19:05;;;;;;;9.13;4.20;;;;;;;;;;6193173;23;20017;-78
2021/10/12 03:22:14;;;;;;;6.85;4.20;;;;;;;;;;6186103;23;20021;-78
2021/10/12 03:25:18;;;;;;;8.48;4.40;;;;;;;;;;6193274;23;20013;-78
2021/10/12 03:28:24;;;;;;;7.15;4.50;;;;;;;;;;6193084;23;20009;-78
2021/10/12 03:31:28;;;;;;;4.93;4.07;;;;;;;;;;6193199;23;20319;-78
2021/10/12 03:34:32;;;;;;;6.90;4.30;;;;;;;;;;6193323;23;20430;-78
2021/10/12 03:37:37;;;;;;;6.00;4.57;;;;;;;;;;6193060;23;20020;-78
2021/10/12 03:40:41;;;;;;;10.88;4.95;;;;;;;;;;6193283;23;20012;-78
2021/10/12 03:43:45;;;;;;;6.50;4.25;;;;;;;;;;6193262;23;20024;-78
2021/10/12 03:46:50;;;;;;;8.88;3.90;;;;;;;;;;6193083;23;20009;-78
2021/10/12 03:49:54;;;;;;;9.20;4.20;;;;;;;;;;6193306;23;20016;-78
2021/10/12 03:52:58;;;;;;;8.32;3.88;;;;;;;;;;6193276;23;20013;-78
2021/10/12 03:56:03;;;;;;;7.80;4.20;;;;;;;;;;6193293;23;20009;-78
2021/10/12 03:59:08;;;;;;;8.27;3.72;;;;;;;;;;6193129;23;20017;-79
2021/10/12 04:02:13;;;;;;;10.55;4.57;;;;;;;;;;6194684;23;20445;-78
2021/10/12 04:05:17;;;;;;;11.27;4.35;;;;;;;;;;6195189;23;20337;-78
2021/10/12 04:08:21;;;;;;;5.95;4.35;;;;;;;;;;6194086;23;20024;-77
2021/10/12 04:11:26;;;;;;;5.63;3.90;;;;;;;;;;6194947;23;20020;-78
2021/10/12 04:14:30;;;;;;;14.18;5.72;;;;;;;;;;6195144;23;20009;-78
2021/10/12 04:17:34;;;;;;;9.10;4.38;;;;;;;;;;6186106;23;20020;-78
2021/10/12 04:20:39;;;;;;;7.93;4.22;;;;;;;;;;6193907;23;20009;-79
2021/10/12 04:23:43;;;;;;;9.70;4.65;;;;;;;;;;6194880;23;20021;-78
2021/10/12 04:26:47;;;;;;;14.43;4.95;;;;;;;;;;6194761;23;20005;-78
2021/10/12 04:29:52;;;;;;;6.75;4.85;;;;;;;;;;6194681;23;20024;-78
2021/10/12 04:32:56;;;;;;;7.82;4.78;;;;;;;;;;6194762;23;20021;-78
2021/10/12 04:36:01;;;;;;;8.27;5.05;;;;;;;;;;6194731;23;20009;-78
2021/10/12 04:39:06;;;;;;;8.32;4.38;;;;;;;;;;6194824;23;20064;-78
2021/10/12 04:42:10;;;;;;;11.25;5.65;;;;;;;;;;6194741;23;20012;-78
2021/10/12 04:45:14;;;;;;;11.57;6.07;;;;;;;;;;6194769;23;20460;-79
2021/10/12 04:48:19;;;;;;;9.35;5.05;;;;;;;;;;6194626;23;20028;-78
2021/10/12 04:51:23;;;;;;;14.82;5.20;;;;;;;;;;6194553;23;20327;-79
2021/10/12 04:54:27;;;;;;;7.85;5.00;;;;;;;;;;6194616;23;20017;-78
2021/10/12 04:57:32;;;;;;;15.10;5.03;;;;;;;;;;6193518;23;20009;-78
2021/10/12 05:00:37;;;;;;;8.68;5.28;;;;;;;;;;6194593;23;20020;-78
2021/10/12 05:03:42;;;;;;;7.35;4.97;;;;;;;;;;6194557;23;20005;-78
2021/10/12 05:06:46;;;;;;;11.43;4.93;;;;;;;;;;6194465;23;20017;-78
2021/10/12 05:09:50;;;;;;;9.82;5.95;;;;;;;;;;6194378;23;20020;-78
2021/10/12 05:12:55;;;;;;;10.55;5.72;;;;;;;;;;6194019;23;20017;-78
2021/10/12 05:16:02;;;;;;;14.23;6.05;;;;;;;;;;6192082;23;20017;-78
2021/10/12 05:19:06;;;;;;;11.23;6.32;;;;;;;;;;6193478;23;20345;-78
2021/10/12 05:22:11;;;;;;;18.15;6.82;;;;;;;;;;6186907;23;20071;-78
2021/10/12 05:25:16;;;;;;;17.27;8.40;;;;;;;;;;6194453;23;20024;-79
2021/10/12 05:28:20;;;;;;;14.15;7.03;;;;;;;;;;6194126;23;20012;-79
2021/10/12 05:31:24;;;;;;;15.48;7.18;;;;;;;;;;6194198;23;20020;-78
2021/10/12 05:34:29;;;;;;;20.15;8.02;;;;;;;;;;6194318;23;20080;-78
2021/10/12 05:37:33;;;;;;;14.68;7.00;;;;;;;;;;6194015;23;20020;-80
2021/10/12 05:40:38;;;;;;;19.30;7.93;;;;;;;;;;6194097;23;20016;-80
2021/10/12 05:43:42;;;;;;;20.80;8.48;;;;;;;;;;6194095;23;20024;-80
2021/10/12 05:46:47;;;;;;;19.85;9.20;;;;;;;;;;6193997;23;20043;-80
2021/10/12 05:49:51;;;;;;;34.10;13.43;;;;;;;;;;6193720;23;20020;-68
2021/10/12 05:53:09;;;;;;;34.53;13.52;;;;;;;;;;6193894;23;20016;-69
2021/10/12 05:59:26;;;;;;;29.83;13.48;;;;;;;;;;6194020;23;20024;-69
2021/10/12 06:02:31;;;;;;;31.65;11.13;;;;;;;;;;6193849;23;20023;-69
2021/10/12 06:05:35;;;;;;;19.65;9.95;;;;;;;;;;6193839;23;20016;-68
2021/10/12 06:08:41;;;;;;;16.17;8.70;;;;;;;;;;6193825;23;20020;-69
2021/10/12 06:11:45;;;;;;;21.05;9.82;;;;;;;;;;6193462;23;20049;-70
2021/10/12 06:14:49;;;;;;;13.32;7.78;;;;;;;;;;6193951;23;20020;-68
2021/10/12 06:17:53;;;;;;;23.40;8.20;;;;;;;;;;6192823;23;20016;-68
2021/10/12 06:20:58;;;;;;;22.08;8.15;;;;;;;;;;6190310;23;20317;-67
2021/10/12 06:24:02;;;;;;;41.75;17.00;;;;;;;;;;6193655;23;20012;-69
2021/10/12 06:27:06;;;;;;;15.77;6.47;;;;;;;;;;6193515;23;20024;-69
2021/10/12 06:30:11;;;;;;;14.15;6.50;;;;;;;;;;6193075;23;20028;-69
2021/10/12 06:33:16;;;;;;;13.82;5.53;;;;;;;;;;6193836;23;20036;-69
2021/10/12 06:36:20;;;;;;;16.17;5.88;;;;;;;;;;6193684;23;20016;-74
2021/10/12 06:39:25;;;;;;;11.02;5.40;;;;;;;;;;6193675;23;20020;-67
2021/10/12 06:42:29;;;;;;;7.28;5.22;;;;;;;;;;6193283;23;20333;-68
2021/10/12 06:45:34;;;;;;;13.02;5.20;;;;;;;;;;6193375;23;20017;-69
2021/10/12 06:48:38;;;;;;;11.85;4.63;;;;;;;;;;6193454;23;20015;-68
2021/10/12 06:51:43;;;;;;;14.95;5.32;;;;;;;;;;6193170;23;20043;-68
2021/10/12 06:54:50;;;;;;;8.57;4.57;;;;;;;;;;6193431;23;20036;-67
2021/10/12 06:57:54;;;;;;;12.68;5.30;;;;;;;;;;6192888;23;20017;-66
2021/10/12 07:00:58;;;;;;;17.48;5.93;;;;;;;;;;6193281;23;20460;-66
2021/10/12 07:04:02;;;;;;;16.02;6.65;;;;;;;;;;6193145;23;20024;-66
2021/10/12 07:07:07;;;;;;;16.63;6.30;;;;;;;;;;6193134;23;20012;-66
2021/10/12 07:10:12;;;;;;;13.50;6.43;;;;;;;;;;6193260;23;20028;-66
2021/10/12 07:13:17;;;;;;;13.02;5.85;;;;;;;;;;6193439;23;20345;-66
2021/10/12 07:16:22;;;;;;;13.82;5.88;;;;;;;;;;6187241;23;20044;-66
2021/10/12 07:19:27;;;;;;;11.98;5.90;;;;;;;;;;6193375;23;20024;-67
2021/10/12 07:22:32;;;;;;;21.98;6.65;;;;;;;;;;6184451;23;20024;-67
2021/10/12 07:25:36;;;;;;;9.98;4.75;;;;;;;;;;6193110;23;20019;-66
2021/10/12 07:28:40;;;;;;;16.67;8.10;;;;;;;;;;6192856;23;20008;-66
2021/10/12 07:31:44;;;;;;;15.38;5.45;;;;;;;;;;6192822;23;20350;-66
2021/10/12 07:34:48;;;;;;;10.60;4.63;;;;;;;;;;6193005;23;20007;-66
2021/10/12 07:37:55;;;;;;;10.30;4.57;;;;;;;;;;6192966;23;20044;-66
2021/10/12 07:40:59;;;;;;;10.00;4.78;;;;;;;;;;6192865;23;20024;-66
2021/10/12 07:44:04;;;;;;;6.97;4.03;;;;;;;;;;6193091;23;20020;-66
2021/10/12 07:47:09;;;;;;;8.00;4.35;;;;;;;;;;6192895;23;20017;-66
2021/10/12 07:50:15;;;;;;;10.57;4.95;;;;;;;;;;6192903;23;20009;-66
2021/10/12 07:53:19;;;;;;;6.97;4.82;;;;;;;;;;6193049;23;20025;-66
2021/10/12 07:56:36;;;;;;;7.93;4.18;;;;;;;;;;6192692;23;20013;-66
2021/10/12 07:59:41;;;;;;;9.15;3.53;;;;;;;;;;6192876;23;20021;-66
2021/10/12 08:02:46;;;;;;;6.78;2.75;;;;;;;;;;6193020;23;20017;-66
2021/10/12 08:05:50;;;;;;;10.25;3.35;;;;;;;;;;6192978;23;20009;-66
2021/10/12 08:08:55;;;;;;;9.90;3.45;;;;;;;;;;6193047;23;20009;-66
2021/10/12 08:11:59;;;;;;;9.10;3.72;;;;;;;;;;6192884;23;20025;-66
2021/10/12 08:15:04;;;;;;;8.23;3.75;;;;;;;;;;6192186;23;20009;-66
2021/10/12 08:18:08;;;;;;;14.40;5.88;;;;;;;;;;6192872;23;20017;-66
2021/10/12 08:21:14;;;;;;;11.38;4.50;;;;;;;;;;6189591;23;20024;-65
2021/10/12 08:24:20;;;;;;;8.93;3.55;;;;;;;;;;6193184;23;20472;-66
2021/10/12 08:27:24;;;;;;;9.35;4.68;;;;;;;;;;6192849;23;20437;-66
2021/10/12 08:30:29;;;;;;;9.10;4.40;;;;;;;;;;6193022;23;20017;-66
2021/10/12 08:33:34;;;;;;;8.18;3.70;;;;;;;;;;6192811;23;20402;-66
2021/10/12 08:36:38;;;;;;;10.88;4.78;;;;;;;;;;6192836;23;20339;-65
2021/10/12 08:39:44;;;;;;;6.55;3.60;;;;;;;;;;6192500;23;20020;-66
2021/10/12 08:42:50;;;;;;;6.15;3.08;;;;;;;;;;6192708;23;20433;-66
2021/10/12 08:45:54;;;;;;;5.10;3.05;;;;;;;;;;6192686;23;20013;-67
2021/10/12 08:48:59;;;;;;;7.50;3.42;;;;;;;;;;6194082;23;20013;-66
2021/10/12 08:52:03;;;;;;;8.45;3.33;;;;;;;;;;6194840;23;20331;-66
2021/10/12 08:55:08;;;;;;;10.27;3.80;;;;;;;;;;6195081;23;20009;-65
2021/10/12 08:58:12;;;;;;;5.85;2.85;;;;;;;;;;6195191;23;20081;-66
2021/10/12 09:01:19;;;;;;;9.05;3.80;;;;;;;;;;6194830;23;20017;-66
2021/10/12 09:04:24;;;;;;;8.75;3.58;;;;;;;;;;6194902;23;20013;-67
2021/10/12 09:07:30;;;;;;;10.60;3.08;;;;;;;;;;6194624;23;20449;-66
2021/10/12 09:10:37;;;;;;;4.68;2.75;;;;;;;;;;6194717;23;20028;-67
2021/10/12 09:13:45;;;;;;;5.78;3.00;;;;;;;;;;6194700;23;20013;-67
2021/10/12 09:16:50;;;;;;;6.45;2.85;;;;;;;;;;6185581;23;20017;-66
2021/10/12 09:19:54;;;;;;;5.22;2.50;;;;;;;;;;6194477;23;20449;-66
2021/10/12 09:23:07;;;;;;;6.50;2.92;;;;;;;;;;6194643;23;20013;-66
2021/10/12 09:26:23;;;;;;;4.82;2.45;;;;;;;;;;6194371;23;20319;-67
2021/10/12 09:29:39;;;;;;;7.60;2.97;;;;;;;;;;6194692;23;20017;-66
2021/10/12 09:32:43;;;;;;;15.57;2.58;;;;;;;;;;6194655;23;20450;-66
2021/10/12 09:35:47;;;;;;;10.80;2.45;;;;;;;;;;6194522;23;20016;-67
2021/10/12 09:38:52;;;;;;;8.80;2.78;;;;;;;;;;6194486;23;20081;-65
2021/10/12 09:41:57;;;;;;;4.85;2.40;;;;;;;;;;6194271;23;20222;-67
2021/10/12 09:45:02;;;;;;;11.45;3.03;;;;;;;;;;6194559;23;20017;-71
2021/10/12 09:48:25;;;;;;;11.63;2.63;;;;;;;;;;6194390;23;20025;-65
2021/10/12 09:51:29;;;;;;;6.00;3.30;;;;;;;;;;6185440;23;20032;-65
2021/10/12 09:54:57;;;;;;;6.38;2.40;;;;;;;;;;6194377;23;20108;-67
2021/10/12 09:58:03;;;;;;;6.22;2.30;;;;;;;;;;6194277;23;20125;-67
2021/10/12 10:01:08;;;;;;;5.03;2.58;;;;;;;;;;6194383;23;20017;-67
2021/10/12 10:04:14;;;;;;;8.90;2.60;;;;;;;;;;6194457;23;20013;-67
2021/10/12 10:07:28;;;;;;;7.95;2.70;;;;;;;;;;6194054;23;20013;-66
2021/10/12 10:10:33;;;;;;;8.10;2.78;;;;;;;;;;6194070;23;20434;-66
2021/10/12 10:13:38;;;;;;;5.32;2.88;;;;;;;;;;6194281;23;20469;-65
2021/10/12 10:16:47;;;;;;;7.55;2.85;;;;;;;;;;6184985;23;20318;-66
2021/10/12 10:19:52;;;;;;;6.00;2.22;;;;;;;;;;6194032;23;20009;-66
2021/10/12 10:22:57;;;;;;;3.15;1.80;;;;;;;;;;6193894;23;20326;-65
2021/10/12 10:26:20;;;;;;;5.72;2.67;;;;;;;;;;6193717;23;20438;-68
2021/10/12 10:29:24;;;;;;;6.28;2.95;;;;;;;;;;6193976;23;20009;-73
2021/10/12 10:32:30;;;;;;;4.85;2.28;;;;;;;;;;6193228;23;20017;-68
2021/10/12 10:35:35;;;;;;;7.78;2.50;;;;;;;;;;6193725;23;20013;-67
2021/10/12 10:38:44;;;;;;;7.00;2.47;;;;;;;;;;6193740;23;20421;-65
2021/10/12 10:41:48;;;;;;;8.40;3.30;;;;;;;;;;6193762;23;20013;-63
2021/10/12 10:44:54;;;;;;;9.93;2.58;;;;;;;;;;6193726;23;20141;-64
2021/10/12 10:48:04;;;;;;;6.20;2.63;;;;;;;;;;6193557;23;20017;-64
2021/10/12 10:51:21;;;;;;;5.28;2.20;;;;;;;;;;6193848;23;20453;-66
2021/10/12 10:54:44;;;;;;;9.40;2.40;;;;;;;;;;6193708;23;20009;-67
2021/10/12 10:58:01;;;;;;;4.45;2.70;;;;;;;;;;6193511;23;20013;-67
2021/10/12 11:01:06;;;;;;;4.15;2.20;;;;;;;;;;6193633;23;20017;-68
2021/10/12 11:04:31;;;;;;;6.85;2.10;;;;;;;;;;6193563;23;20445;-70
2021/10/12 11:07:35;;;;;;;7.38;2.22;;;;;;;;;;6193309;23;20449;-66
2021/10/12 11:10:40;;;;;;;10.27;2.72;;;;;;;;;;6191291;23;20013;-66
2021/10/12 11:13:45;;;;;;;8.50;3.10;;;;;;;;;;6193240;23;20024;-65
2021/10/12 11:16:50;;;;;;;5.85;2.80;;;;;;;;;;6193147;23;20318;-65
2021/10/12 11:19:58;;;;;;;4.38;2.30;;;;;;;;;;6193152;23;20013;-65
2021/10/12 11:23:03;;;;;;;5.35;2.30;;;;;;;;;;6193435;23;20013;-65
2021/10/12 11:26:11;;;;;;;7.78;2.72;;;;;;;;;;6193381;23;20012;-66
2021/10/12 11:29:15;;;;;;;4.07;2.40;;;;;;;;;;6192267;23;20013;-66
2021/10/12 11:32:21;;;;;;;4.57;2.58;;;;;;;;;;6193133;23;20021;-65
2021/10/12 11:35:33;;;;;;;6.38;2.75;;;;;;;;;;6193155;23;20009;-65
2021/10/12 11:38:39;;;;;;;3.15;2.20;;;;;;;;;;6192944;23;20017;-66
2021/10/12 11:41:43;;;;;;;5.78;3.00;;;;;;;;;;6193295;23;20434;-65
2021/10/12 11:44:51;;;;;;;4.65;2.60;;;;;;;;;;6193121;23;20008;-66
2021/10/12 11:47:55;;;;;;;4.20;2.53;;;;;;;;;;6193305;23;20013;-65
2021/10/12 11:51:12;;;;;;;12.48;3.88;;;;;;;;;;6194462;23;20020;-65
2021/10/12 11:54:26;;;;;;;9.00;3.42;;;;;;;;;;6193989;23;20016;-68
2021/10/12 11:57:30;;;;;;;4.78;2.38;;;;;;;;;;6193829;23;20013;-67
2021/10/12 12:00:38;;;;;;;7.75;2.25;;;;;;;;;;6193214;23;20013;-68
2021/10/12 12:03:44;;;;;;;5.93;2.50;;;;;;;;;;6192271;23;20437;-68
2021/10/12 12:06:49;;;;;;;4.03;2.42;;;;;;;;;;6192725;23;20009;-65
2021/10/12 12:09:53;;;;;;;6.95;2.17;;;;;;;;;;6192747;23;20013;-66
2021/10/12 12:12:57;;;;;;;6.10;2.45;;;;;;;;;;6193252;23;20020;-66
2021/10/12 12:16:01;;;;;;;3.72;2.20;;;;;;;;;;6183860;23;20013;-66
2021/10/12 12:19:19;;;;;;;6.60;2.45;;;;;;;;;;6193068;23;20453;-67
2021/10/12 12:22:28;;;;;;;13.10;2.60;;;;;;;;;;6185315;23;20017;-66
2021/10/12 12:25:32;;;;;;;3.90;2.33;;;;;;;;;;6194999;23;20023;-68
2021/10/12 12:28:37;;;;;;;4.95;2.70;;;;;;;;;;6194787;23;20017;-68
2021/10/12 12:31:49;;;;;;;5.55;2.70;;;;;;;;;;6194647;23;20021;-69
2021/10/12 12:34:59;;;;;;;6.10;2.58;;;;;;;;;;6194872;23;20009;-69
2021/10/12 12:38:04;;;;;;;7.32;2.55;;;;;;;;;;6194784;23;20013;-69
2021/10/12 12:41:19;;;;;;;7.63;2.70;;;;;;;;;;6194814;23;20012;-68
2021/10/12 12:44:27;;;;;;;4.88;2.40;;;;;;;;;;6194489;23;20009;-68
2021/10/12 12:47:31;;;;;;;6.10;2.58;;;;;;;;;;6193440;23;20478;-69
2021/10/12 12:50:36;;;;;;;5.05;2.25;;;;;;;;;;6194678;23;20009;-69
2021/10/12 12:53:48;;;;;;;4.43;2.47;;;;;;;;;;6194364;23;20013;-69
2021/10/12 12:56:52;;;;;;;8.23;2.63;;;;;;;;;;6194277;23;20013;-69
2021/10/12 13:00:02;;;;;;;6.22;2.58;;;;;;;;;;6194603;23;20021;-69
2021/10/12 13:03:07;;;;;;;4.38;2.00;;;;;;;;;;6194348;23;20060;-69
2021/10/12 13:06:11;;;;;;;3.63;1.73;;;;;;;;;;6193392;23;20013;-69
2021/10/12 13:09:15;;;;;;;4.13;2.10;;;;;;;;;;6194352;23;20013;-69
2021/10/12 13:12:23;;;;;;;5.45;2.17;;;;;;;;;;6194313;23;20017;-69
2021/10/12 13:15:27;;;;;;;6.20;2.40;;;;;;;;;;6187853;23;20017;-68
2021/10/12 13:18:32;;;;;;;6.63;2.10;;;;;;;;;;6193382;23;20299;-68
2021/10/12 13:21:36;;;;;;;5.10;2.65;;;;;;;;;;6189143;23;20017;-69
2021/10/12 13:24:43;;;;;;;4.95;2.60;;;;;;;;;;6184223;23;20027;-69
2021/10/12 13:27:47;;;;;;;7.20;3.08;;;;;;;;;;6194225;23;20013;-70
2021/10/12 13:30:54;;;;;;;6.15;3.17;;;;;;;;;;6194092;23;20454;-70
2021/10/12 13:34:00;;;;;;;5.35;2.88;;;;;;;;;;6193608;23;20017;-69
2021/10/12 13:37:04;;;;;;;7.28;3.55;;;;;;;;;;6193145;23;20013;-69
2021/10/12 13:40:09;;;;;;;8.07;4.03;;;;;;;;;;6194191;23;20017;-68
2021/10/12 13:43:14;;;;;;;6.60;2.83;;;;;;;;;;6194356;23;20009;-68
2021/10/12 13:46:18;;;;;;;9.90;2.50;;;;;;;;;;6194094;23;20013;-69
2021/10/12 13:49:22;;;;;;;6.53;2.95;;;;;;;;;;6194086;23;20013;-68
2021/10/12 13:52:28;;;;;;;11.85;3.72;;;;;;;;;;6194035;23;20021;-69
2021/10/12 13:55:32;;;;;;;8.52;2.80;;;;;;;;;;6193924;23;20127;-68
2021/10/12 13:58:36;;;;;;;8.75;3.03;;;;;;;;;;6193850;23;20013;-68
2021/10/12 14:01:43;;;;;;;9.45;3.17;;;;;;;;;;6193647;23;20017;-69
2021/10/12 14:04:48;;;;;;;4.68;2.55;;;;;;;;;;6193555;23;20013;-69
2021/10/12 14:07:52;;;;;;;8.48;3.75;;;;;;;;;;6193366;23;20611;-69
2021/10/12 14:10:57;;;;;;;9.57;3.45;;;;;;;;;;6193559;23;20009;-69
2021/10/12 14:14:01;;;;;;;7.25;2.65;;;;;;;;;;6192775;23;20016;-66
2021/10/12 14:17:06;;;;;;;5.68;2.40;;;;;;;;;;6193668;23;20442;-68
2021/10/12 14:20:10;;;;;;;10.15;3.08;;;;;;;;;;6192912;23;20354;-68
2021/10/12 14:23:15;;;;;;;6.15;2.70;;;;;;;;;;6193866;23;20043;-68
2021/10/12 14:26:19;;;;;;;10.38;2.60;;;;;;;;;;6193613;23;20013;-68
2021/10/12 14:29:25;;;;;;;9.00;2.65;;;;;;;;;;6193134;23;20073;-69
2021/10/12 14:32:31;;;;;;;9.48;2.47;;;;;;;;;;6193642;23;20025;-68
2021/10/12 14:35:35;;;;;;;9.07;2.63;;;;;;;;;;6193187;23;20009;-66
2021/10/12 14:38:39;;;;;;;5.38;2.15;;;;;;;;;;6191321;23;20017;-66
2021/10/12 14:41:44;;;;;;;5.13;2.28;;;;;;;;;;6192389;23;20013;-66
2021/10/12 14:44:48;;;;;;;3.95;2.22;;;;;;;;;;6192662;23;20017;-67
2021/10/12 14:47:53;;;;;;;6.88;2.63;;;;;;;;;;6192833;23;20013;-66
2021/10/12 14:50:57;;;;;;;9.35;3.47;;;;;;;;;;6192848;23;20016;-67
2021/10/12 14:54:01;;;;;;;4.82;2.45;;;;;;;;;;6193012;23;20021;-66
2021/10/12 14:57:05;;;;;;;8.32;2.92;;;;;;;;;;6192781;23;20009;-66
2021/10/12 15:00:11;;;;;;;6.80;3.20;;;;;;;;;;6192983;23;20013;-67
2021/10/12 15:03:15;;;;;;;8.25;2.95;;;;;;;;;;6192746;23;20009;-67
2021/10/12 15:06:19;;;;;;;7.28;3.72;;;;;;;;;;6192525;23;20013;-66
2021/10/12 15:09:24;;;;;;;7.43;3.30;;;;;;;;;;6193003;23;20421;-66
2021/10/12 15:12:28;;;;;;;6.78;2.55;;;;;;;;;;6192865;23;20025;-67
2021/10/12 15:15:34;;;;;;;10.27;3.15;;;;;;;;;;6184097;23;20009;-67
2021/10/12 15:18:38;;;;;;;6.25;3.15;;;;;;;;;;6192338;23;20028;-67
2021/10/12 15:21:44;;;;;;;8.05;3.40;;;;;;;;;;6187049;23;20434;-67
2021/10/12 15:24:48;;;;;;;9.15;3.95;;;;;;;;;;6192555;23;20013;-66
2021/10/12 15:27:54;;;;;;;7.03;3.60;;;;;;;;;;6192186;23;20012;-68
2021/10/12 15:30:59;;;;;;;7.72;3.67;;;;;;;;;;6192897;23;20017;-68
2021/10/12 15:34:05;;;;;;;8.00;3.58;;;;;;;;;;6191408;23;20020;-67
2021/10/12 15:37:09;;;;;;;13.90;3.80;;;;;;;;;;6192786;23;20009;-65
2021/10/12 15:40:17;;;;;;;9.15;4.30;;;;;;;;;;6192822;23;20024;-65
2021/10/12 15:43:21;;;;;;;11.40;4.18;;;;;;;;;;6191462;23;20009;-68
2021/10/12 15:46:25;;;;;;;7.53;4.07;;;;;;;;;;6192735;23;20005;-67
2021/10/12 15:49:30;;;;;;;9.82;4.53;;;;;;;;;;6192455;23;20017;-66
2021/10/12 15:52:34;;;;;;;14.68;4.50;;;;;;;;;;6192374;23;20024;-67
2021/10/12 15:55:39;;;;;;;11.38;5.13;;;;;;;;;;6191437;23;20072;-68
2021/10/12 15:58:43;;;;;;;11.13;4.63;;;;;;;;;;6191125;23;20020;-66
2021/10/12 16:01:49;;;;;;;11.43;5.30;;;;;;;;;;6191691;23;20024;-67
2021/10/12 16:04:53;;;;;;;10.98;5.63;;;;;;;;;;6191871;23;20024;-67
2021/10/12 16:07:58;;;;;;;13.27;6.00;;;;;;;;;;6191731;23;20028;-67
2021/10/12 16:11:02;;;;;;;13.70;5.13;;;;;;;;;;6192420;23;20025;-68
2021/10/12 16:14:17;;;;;;;11.25;5.97;;;;;;;;;;6187913;23;20028;-68
2021/10/12 16:21:01;;;;;;;16.75;6.15;;;;;;;;;;6191935;23;20456;-68
2021/10/12 16:24:07;;;;;;;10.52;6.30;;;;;;;;;;6192464;23;20024;-67
2021/10/12 16:27:11;;;;;;;11.23;6.03;;;;;;;;;;6191565;23;20343;-65
2021/10/12 16:30:20;;;;;;;17.48;5.93;;;;;;;;;;6191948;23;20464;-65
2021/10/12 16:33:24;;;;;;;10.75;5.68;;;;;;;;;;6191668;23;20058;-65
2021/10/12 16:36:38;;;;;;;14.20;6.07;;;;;;;;;;6192030;23;20045;-64
2021/10/12 16:39:47;;;;;;;15.48;7.00;;;;;;;;;;6190038;23;20461;-65
2021/10/12 16:42:51;;;;;;;10.35;6.30;;;;;;;;;;6191832;23;20016;-65
2021/10/12 16:45:56;;;;;;;16.80;6.47;;;;;;;;;;6191695;23;20020;-64
2021/10/12 16:49:01;;;;;;;12.75;6.32;;;;;;;;;;6192018;23;20020;-66
2021/10/12 16:52:08;;;;;;;15.23;6.22;;;;;;;;;;6191305;23;20024;-66
2021/10/12 16:55:13;;;;;;;11.07;5.85;;;;;;;;;;6192084;23;20024;-66
2021/10/12 16:58:18;;;;;;;13.68;6.45;;;;;;;;;;6192178;23;20021;-66
2021/10/12 17:01:22;;;;;;;11.10;5.60;;;;;;;;;;6192314;23;20310;-66
2021/10/12 17:04:28;;;;;;;10.85;5.68;;;;;;;;;;6192317;23;20024;-66
2021/10/12 17:07:32;;;;;;;10.50;5.80;;;;;;;;;;6192269;23;20468;-65
2021/10/12 17:10:37;;;;;;;14.10;6.30;;;;;;;;;;6193870;23;20021;-65
2021/10/12 17:13:41;;;;;;;15.35;7.30;;;;;;;;;;6188744;23;20033;-65
2021/10/12 17:16:45;;;;;;;11.52;6.70;;;;;;;;;;6193683;23;20009;-65
2021/10/12 17:19:49;;;;;;;14.63;7.15;;;;;;;;;;6193749;23;20024;-65
2021/10/12 17:22:53;;;;;;;11.77;6.90;;;;;;;;;;6183723;23;20342;-65
2021/10/12 17:25:58;;;;;;;13.13;6.50;;;;;;;;;;6193783;23;20027;-66
2021/10/12 17:29:03;;;;;;;18.42;9.85;;;;;;;;;;6193753;23;20016;-66
2021/10/12 17:32:09;;;;;;;17.83;7.80;;;;;;;;;;6193563;23;20024;-65
2021/10/12 17:35:13;;;;;;;14.10;6.75;;;;;;;;;;6193680;23;20016;-65
2021/10/12 17:38:19;;;;;;;12.68;7.00;;;;;;;;;;6193833;23;20028;-66
2021/10/12 17:41:23;;;;;;;20.33;7.88;;;;;;;;;;6193714;23;20020;-66
2021/10/12 17:44:27;;;;;;;20.45;8.15;;;;;;;;;;6193863;23;20024;-65
2021/10/12 17:47:32;;;;;;;17.20;8.77;;;;;;;;;;6193431;23;20585;-66
2021/10/12 17:50:39;;;;;;;18.80;8.00;;;;;;;;;;6193481;23;20020;-66
2021/10/12 17:53:57;;;;;;;18.88;7.55;;;;;;;;;;6193315;23;20028;-66
2021/10/12 17:57:02;;;;;;;17.23;7.70;;;;;;;;;;6193387;23;20076;-66
2021/10/12 18:00:06;;;;;;;16.00;8.02;;;;;;;;;;6193803;23;20020;-76
2021/10/12 18:03:19;;;;;;;14.10;7.30;;;;;;;;;;6193778;23;20115;-73
2021/10/12 18:06:24;;;;;;;18.55;9.57;;;;;;;;;;6193573;23;20016;-74
2021/10/12 18:09:29;;;;;;;15.15;6.60;;;;;;;;;;6193420;23;20015;-75
2021/10/12 18:12:33;;;;;;;12.52;7.40;;;;;;;;;;6192235;23;20028;-73
2021/10/12 18:15:39;;;;;;;12.35;7.18;;;;;;;;;;6193171;23;20021;-74
2021/10/12 18:18:46;;;;;;;14.90;7.05;;;;;;;;;;6193666;23;20108;-73
2021/10/12 18:21:52;;;;;;;17.73;6.68;;;;;;;;;;6188608;23;20351;-73
2021/10/12 18:24:56;;;;;;;17.17;7.18;;;;;;;;;;6193398;23;20192;-73
2021/10/12 18:28:00;;;;;;;14.93;7.15;;;;;;;;;;6193253;23;20452;-74
2021/10/12 18:31:05;;;;;;;18.13;6.88;;;;;;;;;;6193544;23;20338;-73
2021/10/12 18:34:10;;;;;;;20.58;7.30;;;;;;;;;;6193691;23;20028;-73